Montpelier, VT

12:58 AM EDT on April 27, 2015 (GMT -0400)
Knapp State | | Change Station
CLOSE
Current Station
Airport
Location: Montpelier,
Elevation: 1165 ft
Nearby Weather Stations

Elev 1165 ft 44.20 °N, 72.56 °W | Updated 7 minutes ago

Overcast
Overcast
42 °F
Feels Like 38 °F
N
6
Wind Variable Wind from WNW

Today
High -- | Low -- °F
--% Chance of Precip.
Yesterday
High -- | Low -- °F
Precip. -- in
5:47 AM 7:48 PM
First Quarter, 61% visible
Pressure 29.70 in
Visibility 10.0 miles
Clouds Overcast 2200 ft
Windchill 38 °F
Dew Point 36 °F
Humidity 79%
Rainfall 0.00 in
Snow Depth Not available.
UV 0 out of 12
Pollen 8.40 out of 12
Air Quality Not available.
Flu Activity Regional
METAR KMPV 270451Z AUTO 30005KT 10SM OVC022 06/02 A2968 RMK AO2 SLP056 T00560022 400940017

More Conditions Fewer Conditions

Pressure 29.70 in
Visibility 10.0 miles
Clouds Overcast 2200 ft
Windchill 38 °F
Dew Point 36 °F
Humidity 79%
Rainfall 0.00 in
Snow Depth Not available.
UV 0 out of 12
Pollen 8.40 out of 12
Air Quality Not available.
Flu Activity Regional
METAR KMPV 270451Z AUTO 30005KT 10SM OVC022 06/02 A2968 RMK AO2 SLP056 T00560022 400940017

More Conditions Fewer Conditions

The full scope of the disaster following a powerful 7.8-magnitude earthquake in Nepal may not come into view for days, but global charities are already sending emergency aid. Click to see how you can help.

10-Day Weather Forecast

Almanac

Astronomy

Apr. 27, 2015 Rise Set
Actual Time
Civil Twilight
Nautical Twilight
Astronomical Twilight
Moon
Length of Visible Light
Length of Day
Tomorrow will be .
, % of the Moon is Illuminated

Today's Extremes

State Highs State Lows

Community

WunderPhotos

Upload Photos

1,817,264 photos uploaded!

WunderBlogs® & News

Nearby

Air Quality

  Air Quality AQ Index Pollutant
Not available.

Snow Depth

Station Depth Elevation

Earthquake Activity

City Distance Mag. Time & Date
Minimum magnitude displayed is 2.5.

Coastal Water Temperatures

Place Temperature

Stations

Nearby Weather Stations

Station Location Temp. Windchill Dew Point Humidity Wind Precip. Elev Updated Type